Terminal Aerodrome Forecast
Issued by NWS

Home | Current Version | Previous Version | Text Only | Print | Product List | Glossary On
Versions: 1 2 3 4 5 6 7 8 9 10 11 12 13 14 15
735
FTUS45 KPSR 061120
TAFBLH
TAF
KBLH 061120Z 0612/0712 19010KT P6SM SCT080 SCT120
     FM061800 18012G20KT P6SM VCSH BKN080 BKN120
     FM062200 22016G25KT P6SM VCSH BKN080 BKN120
     FM070300 23010KT P6SM FEW060 BKN200=

USA.gov is the U.S. government's official web portal to all federal, state and local government web resources and services.